sensor_id;sensor_type;location;lat;lon;timestamp;temperature;humidity
4509;DHT22;2267;48.816;9.230;2023-03-12T00:01:23;4.50;86.50
4509;DHT22;2267;48.816;9.230;2023-03-12T00:03:50;4.50;87.00
4509;DHT22;2267;48.816;9.230;2023-03-12T00:06:18;4.50;87.30
4509;DHT22;2267;48.816;9.230;2023-03-12T00:08:45;4.50;87.40
4509;DHT22;2267;48.816;9.230;2023-03-12T00:11:15;4.50;87.60
4509;DHT22;2267;48.816;9.230;2023-03-12T00:13:43;4.50;87.60
4509;DHT22;2267;48.816;9.230;2023-03-12T00:16:12;4.50;88.10
4509;DHT22;2267;48.816;9.230;2023-03-12T00:18:40;4.50;88.20
4509;DHT22;2267;48.816;9.230;2023-03-12T00:21:08;4.50;87.50
4509;DHT22;2267;48.816;9.230;2023-03-12T00:23:35;4.40;87.40
4509;DHT22;2267;48.816;9.230;2023-03-12T00:26:05;4.40;87.90
4509;DHT22;2267;48.816;9.230;2023-03-12T00:28:32;4.40;87.60
4509;DHT22;2267;48.816;9.230;2023-03-12T00:31:01;4.40;87.80
4509;DHT22;2267;48.816;9.230;2023-03-12T00:33:29;4.40;87.80
4509;DHT22;2267;48.816;9.230;2023-03-12T00:35:59;4.30;87.70
4509;DHT22;2267;48.816;9.230;2023-03-12T00:38:26;4.30;88.30
4509;DHT22;2267;48.816;9.230;2023-03-12T00:40:53;4.30;88.40
4509;DHT22;2267;48.816;9.230;2023-03-12T00:43:20;4.30;88.60
4509;DHT22;2267;48.816;9.230;2023-03-12T00:45:47;4.20;88.10
4509;DHT22;2267;48.816;9.230;2023-03-12T00:48:13;4.20;88.70
4509;DHT22;2267;48.816;9.230;2023-03-12T00:50:40;4.20;89.40
4509;DHT22;2267;48.816;9.230;2023-03-12T00:53:07;4.10;88.90
4509;DHT22;2267;48.816;9.230;2023-03-12T00:55:34;4.10;89.00
4509;DHT22;2267;48.816;9.230;2023-03-12T00:58:01;4.10;88.70
4509;DHT22;2267;48.816;9.230;2023-03-12T01:00:28;4.10;89.60
4509;DHT22;2267;48.816;9.230;2023-03-12T01:02:55;4.10;89.60
4509;DHT22;2267;48.816;9.230;2023-03-12T01:05:22;4.10;89.70
4509;DHT22;2267;48.816;9.230;2023-03-12T01:07:49;4.10;90.00
4509;DHT22;2267;48.816;9.230;2023-03-12T01:10:18;4.00;89.80
4509;DHT22;2267;48.816;9.230;2023-03-12T01:12:45;4.00;89.70
4509;DHT22;2267;48.816;9.230;2023-03-12T01:15:15;4.10;89.70
4509;DHT22;2267;48.816;9.230;2023-03-12T01:17:42;4.00;89.80
4509;DHT22;2267;48.816;9.230;2023-03-12T01:20:10;4.00;89.60
4509;DHT22;2267;48.816;9.230;2023-03-12T01:22:37;3.90;89.50
4509;DHT22;2267;48.816;9.230;2023-03-12T01:25:04;4.00;89.30
4509;DHT22;2267;48.816;9.230;2023-03-12T01:27:32;5.20;90.00
4509;DHT22;2267;48.816;9.230;2023-03-12T01:29:58;3.90;88.50
4509;DHT22;2267;48.816;9.230;2023-03-12T01:32:25;4.00;88.60
4509;DHT22;2267;48.816;9.230;2023-03-12T01:34:52;3.90;88.90
4509;DHT22;2267;48.816;9.230;2023-03-12T01:37:19;3.90;89.60
4509;DHT22;2267;48.816;9.230;2023-03-12T01:39:46;3.90;89.70
4509;DHT22;2267;48.816;9.230;2023-03-12T01:42:13;3.90;90.00
4509;DHT22;2267;48.816;9.230;2023-03-12T01:44:57;3.90;90.00
4509;DHT22;2267;48.816;9.230;2023-03-12T01:47:25;3.90;90.10
4509;DHT22;2267;48.816;9.230;2023-03-12T01:49:53;3.90;89.90
4509;DHT22;2267;48.816;9.230;2023-03-12T01:52:28;3.90;90.00
4509;DHT22;2267;48.816;9.230;2023-03-12T01:57:49;3.90;89.60
4509;DHT22;2267;48.816;9.230;2023-03-12T02:00:21;3.90;89.70
4509;DHT22;2267;48.816;9.230;2023-03-12T02:02:50;3.80;90.10
4509;DHT22;2267;48.816;9.230;2023-03-12T02:08:04;3.90;90.10
4509;DHT22;2267;48.816;9.230;2023-03-12T02:10:31;3.80;90.20
4509;DHT22;2267;48.816;9.230;2023-03-12T02:12:58;3.80;90.20
4509;DHT22;2267;48.816;9.230;2023-03-12T02:15:25;3.90;90.40
4509;DHT22;2267;48.816;9.230;2023-03-12T02:17:51;3.90;90.40
4509;DHT22;2267;48.816;9.230;2023-03-12T02:20:47;3.90;90.50
4509;DHT22;2267;48.816;9.230;2023-03-12T02:26:04;3.90;90.50
4509;DHT22;2267;48.816;9.230;2023-03-12T02:28:33;3.90;90.50
4509;DHT22;2267;48.816;9.230;2023-03-12T02:31:02;3.90;90.30
4509;DHT22;2267;48.816;9.230;2023-03-12T02:33:29;3.90;90.50
4509;DHT22;2267;48.816;9.230;2023-03-12T02:35:56;3.90;90.60
4509;DHT22;2267;48.816;9.230;2023-03-12T02:38:36;3.90;90.70
4509;DHT22;2267;48.816;9.230;2023-03-12T02:46:26;4.00;90.50
4509;DHT22;2267;48.816;9.230;2023-03-12T02:48:54;3.90;90.70
4509;DHT22;2267;48.816;9.230;2023-03-12T02:51:21;3.90;90.70
4509;DHT22;2267;48.816;9.230;2023-03-12T02:53:48;3.90;90.70
4509;DHT22;2267;48.816;9.230;2023-03-12T02:56:24;3.90;90.90
4509;DHT22;2267;48.816;9.230;2023-03-12T02:58:52;3.90;90.80
4509;DHT22;2267;48.816;9.230;2023-03-12T03:01:20;3.90;90.90
4509;DHT22;2267;48.816;9.230;2023-03-12T03:03:47;3.90;90.80
4509;DHT22;2267;48.816;9.230;2023-03-12T03:06:15;3.90;90.60
4509;DHT22;2267;48.816;9.230;2023-03-12T03:08:42;3.90;90.70
4509;DHT22;2267;48.816;9.230;2023-03-12T03:11:08;3.90;91.00
4509;DHT22;2267;48.816;9.230;2023-03-12T03:13:35;3.80;90.80
4509;DHT22;2267;48.816;9.230;2023-03-12T03:16:02;3.80;90.90
4509;DHT22;2267;48.816;9.230;2023-03-12T03:18:30;3.80;91.00
4509;DHT22;2267;48.816;9.230;2023-03-12T03:21:08;3.80;91.10
4509;DHT22;2267;48.816;9.230;2023-03-12T03:23:35;3.80;91.00
4509;DHT22;2267;48.816;9.230;2023-03-12T03:26:02;3.80;90.90
4509;DHT22;2267;48.816;9.230;2023-03-12T03:28:29;3.70;91.00
4509;DHT22;2267;48.816;9.230;2023-03-12T03:30:57;3.70;91.20
4509;DHT22;2267;48.816;9.230;2023-03-12T03:33:31;3.70;91.30
4509;DHT22;2267;48.816;9.230;2023-03-12T03:35:58;3.70;91.20
4509;DHT22;2267;48.816;9.230;2023-03-12T03:38:27;3.70;91.20
4509;DHT22;2267;48.816;9.230;2023-03-12T03:40:54;3.70;91.30
4509;DHT22;2267;48.816;9.230;2023-03-12T03:43:21;3.70;91.40
4509;DHT22;2267;48.816;9.230;2023-03-12T03:45:55;3.70;91.60
4509;DHT22;2267;48.816;9.230;2023-03-12T03:48:22;3.70;91.70
4509;DHT22;2267;48.816;9.230;2023-03-12T03:50:49;3.70;91.80
4509;DHT22;2267;48.816;9.230;2023-03-12T03:53:16;3.70;92.00
4509;DHT22;2267;48.816;9.230;2023-03-12T03:55:45;3.80;91.80
4509;DHT22;2267;48.816;9.230;2023-03-12T03:58:12;4.90;92.60
4509;DHT22;2267;48.816;9.230;2023-03-12T04:00:39;3.80;91.70
4509;DHT22;2267;48.816;9.230;2023-03-12T04:03:06;5.20;92.20
4509;DHT22;2267;48.816;9.230;2023-03-12T04:05:32;3.80;91.70
4509;DHT22;2267;48.816;9.230;2023-03-12T04:07:59;3.80;91.70
4509;DHT22;2267;48.816;9.230;2023-03-12T04:10:29;3.80;91.60
4509;DHT22;2267;48.816;9.230;2023-03-12T04:12:56;3.70;91.60
4509;DHT22;2267;48.816;9.230;2023-03-12T04:15:23;3.70;91.60
4509;DHT22;2267;48.816;9.230;2023-03-12T04:17:50;3.70;91.70
4509;DHT22;2267;48.816;9.230;2023-03-12T04:20:17;3.70;91.70
4509;DHT22;2267;48.816;9.230;2023-03-12T04:22:44;3.60;92.20
4509;DHT22;2267;48.816;9.230;2023-03-12T04:25:10;3.60;91.90
4509;DHT22;2267;48.816;9.230;2023-03-12T04:27:37;3.60;92.40
4509;DHT22;2267;48.816;9.230;2023-03-12T04:30:04;3.60;92.10
4509;DHT22;2267;48.816;9.230;2023-03-12T04:32:31;3.60;92.30
4509;DHT22;2267;48.816;9.230;2023-03-12T04:34:58;3.60;92.30
4509;DHT22;2267;48.816;9.230;2023-03-12T04:37:25;3.60;92.20
4509;DHT22;2267;48.816;9.230;2023-03-12T04:39:52;3.60;92.50
4509;DHT22;2267;48.816;9.230;2023-03-12T04:42:19;3.60;92.30
4509;DHT22;2267;48.816;9.230;2023-03-12T04:44:45;3.60;92.30
4509;DHT22;2267;48.816;9.230;2023-03-12T04:47:12;3.70;92.20
4509;DHT22;2267;48.816;9.230;2023-03-12T04:49:39;3.70;92.20
4509;DHT22;2267;48.816;9.230;2023-03-12T04:52:05;3.70;92.40
4509;DHT22;2267;48.816;9.230;2023-03-12T04:54:33;3.70;92.40
4509;DHT22;2267;48.816;9.230;2023-03-12T04:57:00;3.70;92.30
4509;DHT22;2267;48.816;9.230;2023-03-12T04:59:26;3.70;92.30
4509;DHT22;2267;48.816;9.230;2023-03-12T05:01:53;3.70;92.40
4509;DHT22;2267;48.816;9.230;2023-03-12T05:04:20;3.70;92.40
4509;DHT22;2267;48.816;9.230;2023-03-12T05:06:47;3.70;92.50
4509;DHT22;2267;48.816;9.230;2023-03-12T05:09:13;3.70;92.50
4509;DHT22;2267;48.816;9.230;2023-03-12T05:11:40;3.70;92.60
4509;DHT22;2267;48.816;9.230;2023-03-12T05:14:09;3.70;92.50
4509;DHT22;2267;48.816;9.230;2023-03-12T05:16:37;3.70;92.50
4509;DHT22;2267;48.816;9.230;2023-03-12T05:19:03;4.30;92.80
4509;DHT22;2267;48.816;9.230;2023-03-12T05:21:31;3.70;92.60
4509;DHT22;2267;48.816;9.230;2023-03-12T05:23:58;3.70;92.60
4509;DHT22;2267;48.816;9.230;2023-03-12T05:26:27;3.70;92.70
4509;DHT22;2267;48.816;9.230;2023-03-12T05:28:57;3.80;92.90
4509;DHT22;2267;48.816;9.230;2023-03-12T05:31:25;3.80;92.70
4509;DHT22;2267;48.816;9.230;2023-03-12T05:33:52;3.80;92.60
4509;DHT22;2267;48.816;9.230;2023-03-12T05:36:19;3.80;92.50
4509;DHT22;2267;48.816;9.230;2023-03-12T05:38:46;3.80;92.50
4509;DHT22;2267;48.816;9.230;2023-03-12T05:41:23;3.80;92.50
4509;DHT22;2267;48.816;9.230;2023-03-12T05:43:52;3.80;92.50
4509;DHT22;2267;48.816;9.230;2023-03-12T05:46:19;3.70;92.60
4509;DHT22;2267;48.816;9.230;2023-03-12T05:48:46;3.80;92.80
4509;DHT22;2267;48.816;9.230;2023-03-12T05:51:13;3.90;92.80
4509;DHT22;2267;48.816;9.230;2023-03-12T05:53:40;3.80;92.80
4509;DHT22;2267;48.816;9.230;2023-03-12T05:56:11;3.90;92.90
4509;DHT22;2267;48.816;9.230;2023-03-12T05:58:39;3.90;92.80
4509;DHT22;2267;48.816;9.230;2023-03-12T06:01:18;3.90;92.70
4509;DHT22;2267;48.816;9.230;2023-03-12T06:03:45;3.90;92.70
4509;DHT22;2267;48.816;9.230;2023-03-12T06:06:12;3.90;92.70
4509;DHT22;2267;48.816;9.230;2023-03-12T06:08:40;3.90;92.70
4509;DHT22;2267;48.816;9.230;2023-03-12T06:11:07;3.90;92.70
4509;DHT22;2267;48.816;9.230;2023-03-12T06:13:35;3.90;92.90
4509;DHT22;2267;48.816;9.230;2023-03-12T06:16:07;3.90;93.00
4509;DHT22;2267;48.816;9.230;2023-03-12T06:18:36;3.90;93.30
4509;DHT22;2267;48.816;9.230;2023-03-12T06:21:24;3.80;93.60
4509;DHT22;2267;48.816;9.230;2023-03-12T06:23:51;3.80;94.00
4509;DHT22;2267;48.816;9.230;2023-03-12T06:26:20;3.80;94.30
4509;DHT22;2267;48.816;9.230;2023-03-12T06:28:48;3.70;94.60
4509;DHT22;2267;48.816;9.230;2023-03-12T06:31:15;3.70;94.90
4509;DHT22;2267;48.816;9.230;2023-03-12T06:33:42;3.70;95.70
4509;DHT22;2267;48.816;9.230;2023-03-12T06:36:10;3.70;96.20
4509;DHT22;2267;48.816;9.230;2023-03-12T06:38:37;3.70;96.50
4509;DHT22;2267;48.816;9.230;2023-03-12T06:41:13;3.70;97.00
4509;DHT22;2267;48.816;9.230;2023-03-12T06:43:41;3.70;97.40
4509;DHT22;2267;48.816;9.230;2023-03-12T06:46:11;3.70;98.00
4509;DHT22;2267;48.816;9.230;2023-03-12T06:48:38;3.70;98.40
4509;DHT22;2267;48.816;9.230;2023-03-12T06:51:09;3.70;98.60
4509;DHT22;2267;48.816;9.230;2023-03-12T06:53:36;3.70;98.90
4509;DHT22;2267;48.816;9.230;2023-03-12T06:56:07;3.70;99.10
4509;DHT22;2267;48.816;9.230;2023-03-12T06:58:34;3.70;99.80
4509;DHT22;2267;48.816;9.230;2023-03-12T07:01:01;3.70;99.80
4509;DHT22;2267;48.816;9.230;2023-03-12T07:03:28;3.70;99.90
4509;DHT22;2267;48.816;9.230;2023-03-12T07:05:55;3.70;99.90
4509;DHT22;2267;48.816;9.230;2023-03-12T07:08:24;3.80;99.90
4509;DHT22;2267;48.816;9.230;2023-03-12T07:10:50;3.80;99.90
4509;DHT22;2267;48.816;9.230;2023-03-12T07:13:17;3.70;99.90
4509;DHT22;2267;48.816;9.230;2023-03-12T07:15:44;3.70;99.90
4509;DHT22;2267;48.816;9.230;2023-03-12T07:18:12;3.70;99.90
4509;DHT22;2267;48.816;9.230;2023-03-12T07:20:43;3.80;99.90
4509;DHT22;2267;48.816;9.230;2023-03-12T07:23:10;3.80;99.90
4509;DHT22;2267;48.816;9.230;2023-03-12T07:25:38;3.80;99.90
4509;DHT22;2267;48.816;9.230;2023-03-12T07:28:06;3.80;99.90
4509;DHT22;2267;48.816;9.230;2023-03-12T07:30:34;3.80;99.90
4509;DHT22;2267;48.816;9.230;2023-03-12T07:33:02;3.90;99.90
4509;DHT22;2267;48.816;9.230;2023-03-12T07:35:29;3.90;99.90
4509;DHT22;2267;48.816;9.230;2023-03-12T07:37:57;3.90;99.90
4509;DHT22;2267;48.816;9.230;2023-03-12T07:40:24;3.90;99.90
4509;DHT22;2267;48.816;9.230;2023-03-12T07:42:51;3.90;99.90
4509;DHT22;2267;48.816;9.230;2023-03-12T07:45:19;3.90;99.90
4509;DHT22;2267;48.816;9.230;2023-03-12T07:47:46;3.90;99.90
4509;DHT22;2267;48.816;9.230;2023-03-12T07:50:17;4.00;99.90
4509;DHT22;2267;48.816;9.230;2023-03-12T07:52:45;4.00;99.90
4509;DHT22;2267;48.816;9.230;2023-03-12T07:55:12;4.00;99.90
4509;DHT22;2267;48.816;9.230;2023-03-12T07:57:39;4.10;99.90
4509;DHT22;2267;48.816;9.230;2023-03-12T08:00:08;4.10;99.90
4509;DHT22;2267;48.816;9.230;2023-03-12T08:02:36;4.10;99.90
4509;DHT22;2267;48.816;9.230;2023-03-12T08:05:04;4.10;99.90
4509;DHT22;2267;48.816;9.230;2023-03-12T08:07:31;4.20;99.90
4509;DHT22;2267;48.816;9.230;2023-03-12T08:10:05;4.10;99.90
4509;DHT22;2267;48.816;9.230;2023-03-12T08:12:33;4.10;99.90
4509;DHT22;2267;48.816;9.230;2023-03-12T08:15:00;4.20;99.90
4509;DHT22;2267;48.816;9.230;2023-03-12T08:17:26;4.10;99.90
4509;DHT22;2267;48.816;9.230;2023-03-12T08:19:53;4.10;99.90
4509;DHT22;2267;48.816;9.230;2023-03-12T08:22:20;4.20;99.90
4509;DHT22;2267;48.816;9.230;2023-03-12T08:24:47;4.20;99.90
4509;DHT22;2267;48.816;9.230;2023-03-12T08:27:14;4.20;99.90
4509;DHT22;2267;48.816;9.230;2023-03-12T08:29:41;4.20;99.90
4509;DHT22;2267;48.816;9.230;2023-03-12T08:32:08;4.20;99.90
4509;DHT22;2267;48.816;9.230;2023-03-12T08:34:39;4.20;99.90
4509;DHT22;2267;48.816;9.230;2023-03-12T08:37:06;4.20;99.90
4509;DHT22;2267;48.816;9.230;2023-03-12T08:39:33;4.20;99.90
4509;DHT22;2267;48.816;9.230;2023-03-12T08:42:00;4.20;99.90
4509;DHT22;2267;48.816;9.230;2023-03-12T08:44:27;4.20;99.90
4509;DHT22;2267;48.816;9.230;2023-03-12T08:46:54;4.20;99.90
4509;DHT22;2267;48.816;9.230;2023-03-12T08:49:21;4.20;99.90
4509;DHT22;2267;48.816;9.230;2023-03-12T08:51:49;4.30;99.90
4509;DHT22;2267;48.816;9.230;2023-03-12T08:54:18;4.30;99.90
4509;DHT22;2267;48.816;9.230;2023-03-12T08:56:49;4.40;99.90
4509;DHT22;2267;48.816;9.230;2023-03-12T08:59:17;4.40;99.90
4509;DHT22;2267;48.816;9.230;2023-03-12T09:01:46;4.40;99.90
4509;DHT22;2267;48.816;9.230;2023-03-12T09:04:12;4.50;99.90
4509;DHT22;2267;48.816;9.230;2023-03-12T09:06:39;4.50;99.90
4509;DHT22;2267;48.816;9.230;2023-03-12T09:09:07;4.60;99.90
4509;DHT22;2267;48.816;9.230;2023-03-12T09:11:35;4.70;99.90
4509;DHT22;2267;48.816;9.230;2023-03-12T09:14:05;4.60;99.90
4509;DHT22;2267;48.816;9.230;2023-03-12T09:16:52;4.70;99.90
4509;DHT22;2267;48.816;9.230;2023-03-12T09:19:19;4.80;99.90
4509;DHT22;2267;48.816;9.230;2023-03-12T09:21:46;4.90;99.90
4509;DHT22;2267;48.816;9.230;2023-03-12T09:24:13;4.90;99.90
4509;DHT22;2267;48.816;9.230;2023-03-12T09:26:40;5.00;99.90
4509;DHT22;2267;48.816;9.230;2023-03-12T09:29:07;5.00;99.90
4509;DHT22;2267;48.816;9.230;2023-03-12T09:31:34;5.10;99.90
4509;DHT22;2267;48.816;9.230;2023-03-12T09:34:02;5.20;99.90
4509;DHT22;2267;48.816;9.230;2023-03-12T09:36:29;5.30;99.90
4509;DHT22;2267;48.816;9.230;2023-03-12T09:38:56;5.30;99.90
4509;DHT22;2267;48.816;9.230;2023-03-12T09:41:29;5.30;99.90
4509;DHT22;2267;48.816;9.230;2023-03-12T09:43:57;5.40;99.90
4509;DHT22;2267;48.816;9.230;2023-03-12T09:46:37;5.50;99.90
4509;DHT22;2267;48.816;9.230;2023-03-12T09:49:18;5.50;99.90
4509;DHT22;2267;48.816;9.230;2023-03-12T09:51:49;5.60;99.90
4509;DHT22;2267;48.816;9.230;2023-03-12T09:54:27;5.70;99.90
4509;DHT22;2267;48.816;9.230;2023-03-12T09:56:57;5.70;99.90
4509;DHT22;2267;48.816;9.230;2023-03-12T09:59:26;5.80;99.90
4509;DHT22;2267;48.816;9.230;2023-03-12T10:01:59;5.90;99.90
4509;DHT22;2267;48.816;9.230;2023-03-12T10:04:44;5.90;99.90
4509;DHT22;2267;48.816;9.230;2023-03-12T10:07:55;6.00;99.90
4509;DHT22;2267;48.816;9.230;2023-03-12T10:24:19;7.00;99.90
4509;DHT22;2267;48.816;9.230;2023-03-12T10:26:54;7.00;99.90
4509;DHT22;2267;48.816;9.230;2023-03-12T10:29:42;7.00;99.90
4509;DHT22;2267;48.816;9.230;2023-03-12T10:37:30;7.10;99.90
4509;DHT22;2267;48.816;9.230;2023-03-12T10:39:58;7.20;99.90
4509;DHT22;2267;48.816;9.230;2023-03-12T10:42:28;7.20;99.90
4509;DHT22;2267;48.816;9.230;2023-03-12T10:47:39;7.30;99.90
4509;DHT22;2267;48.816;9.230;2023-03-12T10:50:19;8.20;99.90
4509;DHT22;2267;48.816;9.230;2023-03-12T10:52:49;7.30;99.90
4509;DHT22;2267;48.816;9.230;2023-03-12T10:57:48;7.40;99.90
4509;DHT22;2267;48.816;9.230;2023-03-12T11:00:21;7.40;99.90
4509;DHT22;2267;48.816;9.230;2023-03-12T11:03:00;7.40;99.90
4509;DHT22;2267;48.816;9.230;2023-03-12T11:05:45;7.50;99.90
4509;DHT22;2267;48.816;9.230;2023-03-12T11:10:49;7.60;99.90
4509;DHT22;2267;48.816;9.230;2023-03-12T11:13:32;7.60;99.90
4509;DHT22;2267;48.816;9.230;2023-03-12T11:16:22;7.60;99.90
4509;DHT22;2267;48.816;9.230;2023-03-12T11:19:02;7.70;99.90
4509;DHT22;2267;48.816;9.230;2023-03-12T11:21:32;7.80;99.90
4509;DHT22;2267;48.816;9.230;2023-03-12T11:24:11;7.80;99.90
4509;DHT22;2267;48.816;9.230;2023-03-12T11:26:55;8.00;99.90
4509;DHT22;2267;48.816;9.230;2023-03-12T11:29:37;8.10;99.90
4509;DHT22;2267;48.816;9.230;2023-03-12T11:32:33;8.20;99.90
4509;DHT22;2267;48.816;9.230;2023-03-12T11:35:02;8.30;99.90
4509;DHT22;2267;48.816;9.230;2023-03-12T11:43:36;8.50;99.90
4509;DHT22;2267;48.816;9.230;2023-03-12T11:56:54;9.00;99.90
4509;DHT22;2267;48.816;9.230;2023-03-12T12:07:38;9.30;99.90
4509;DHT22;2267;48.816;9.230;2023-03-12T12:10:38;9.30;99.90
4509;DHT22;2267;48.816;9.230;2023-03-12T12:21:40;9.50;99.90
4509;DHT22;2267;48.816;9.230;2023-03-12T12:27:20;9.70;99.90
4509;DHT22;2267;48.816;9.230;2023-03-12T12:32:56;10.00;99.90
4509;DHT22;2267;48.816;9.230;2023-03-12T12:35:37;10.10;99.90
4509;DHT22;2267;48.816;9.230;2023-03-12T12:38:51;10.10;99.90
4509;DHT22;2267;48.816;9.230;2023-03-12T12:41:18;10.20;99.90
4509;DHT22;2267;48.816;9.230;2023-03-12T12:43:54;10.20;99.90
4509;DHT22;2267;48.816;9.230;2023-03-12T12:46:27;10.30;99.90
4509;DHT22;2267;48.816;9.230;2023-03-12T12:49:25;10.30;99.90
4509;DHT22;2267;48.816;9.230;2023-03-12T12:52:00;10.30;99.90
4509;DHT22;2267;48.816;9.230;2023-03-12T12:57:48;10.30;99.90
4509;DHT22;2267;48.816;9.230;2023-03-12T13:02:49;10.40;99.90
4509;DHT22;2267;48.816;9.230;2023-03-12T13:05:25;10.40;99.90
4509;DHT22;2267;48.816;9.230;2023-03-12T13:07:52;10.40;99.90
4509;DHT22;2267;48.816;9.230;2023-03-12T13:13:19;10.40;99.90
4509;DHT22;2267;48.816;9.230;2023-03-12T13:15:46;10.40;99.90
4509;DHT22;2267;48.816;9.230;2023-03-12T13:18:25;10.40;99.90
4509;DHT22;2267;48.816;9.230;2023-03-12T13:26:22;10.40;99.90
4509;DHT22;2267;48.816;9.230;2023-03-12T13:36:36;10.90;99.90
4509;DHT22;2267;48.816;9.230;2023-03-12T13:42:24;11.10;99.90
4509;DHT22;2267;48.816;9.230;2023-03-12T13:52:25;11.10;99.90
4509;DHT22;2267;48.816;9.230;2023-03-12T13:55:05;11.10;99.90
4509;DHT22;2267;48.816;9.230;2023-03-12T13:57:51;11.20;99.90
4509;DHT22;2267;48.816;9.230;2023-03-12T14:00:34;11.30;99.90
4509;DHT22;2267;48.816;9.230;2023-03-12T14:03:13;11.30;99.90
4509;DHT22;2267;48.816;9.230;2023-03-12T14:16:39;11.30;99.90
4509;DHT22;2267;48.816;9.230;2023-03-12T14:19:11;11.30;99.90
4509;DHT22;2267;48.816;9.230;2023-03-12T14:21:41;11.30;99.90
4509;DHT22;2267;48.816;9.230;2023-03-12T14:24:23;11.30;99.90
4509;DHT22;2267;48.816;9.230;2023-03-12T14:26:51;11.30;99.90
4509;DHT22;2267;48.816;9.230;2023-03-12T14:32:03;11.20;99.90
4509;DHT22;2267;48.816;9.230;2023-03-12T14:34:40;11.20;99.90
4509;DHT22;2267;48.816;9.230;2023-03-12T14:37:35;11.20;99.90
4509;DHT22;2267;48.816;9.230;2023-03-12T14:40:21;11.20;99.90
4509;DHT22;2267;48.816;9.230;2023-03-12T14:42:49;11.30;99.90
4509;DHT22;2267;48.816;9.230;2023-03-12T14:45:21;11.30;99.90
4509;DHT22;2267;48.816;9.230;2023-03-12T14:47:55;11.40;99.90
4509;DHT22;2267;48.816;9.230;2023-03-12T14:50:29;11.50;99.90
4509;DHT22;2267;48.816;9.230;2023-03-12T14:55:39;11.80;99.90
4509;DHT22;2267;48.816;9.230;2023-03-12T14:58:16;11.80;99.90
4509;DHT22;2267;48.816;9.230;2023-03-12T15:00:44;11.90;99.90
4509;DHT22;2267;48.816;9.230;2023-03-12T15:03:18;11.90;99.90
4509;DHT22;2267;48.816;9.230;2023-03-12T15:05:48;12.00;99.90
4509;DHT22;2267;48.816;9.230;2023-03-12T15:08:16;12.00;99.90
4509;DHT22;2267;48.816;9.230;2023-03-12T15:10:53;12.10;99.90
4509;DHT22;2267;48.816;9.230;2023-03-12T15:13:22;12.10;99.90
4509;DHT22;2267;48.816;9.230;2023-03-12T15:15:52;12.10;99.90
4509;DHT22;2267;48.816;9.230;2023-03-12T15:18:27;12.20;99.90
4509;DHT22;2267;48.816;9.230;2023-03-12T15:20:55;12.10;99.90
4509;DHT22;2267;48.816;9.230;2023-03-12T15:23:24;12.20;99.90
4509;DHT22;2267;48.816;9.230;2023-03-12T15:29:01;12.20;99.90
4509;DHT22;2267;48.816;9.230;2023-03-12T15:31:44;12.20;99.90
4509;DHT22;2267;48.816;9.230;2023-03-12T15:34:26;12.10;99.90
4509;DHT22;2267;48.816;9.230;2023-03-12T15:36:53;12.10;99.90
4509;DHT22;2267;48.816;9.230;2023-03-12T15:42:00;12.10;99.90
4509;DHT22;2267;48.816;9.230;2023-03-12T15:47:32;12.00;99.90
4509;DHT22;2267;48.816;9.230;2023-03-12T15:50:20;12.00;99.90
4509;DHT22;2267;48.816;9.230;2023-03-12T15:55:29;11.80;99.90
4509;DHT22;2267;48.816;9.230;2023-03-12T15:57:57;11.90;99.90
4509;DHT22;2267;48.816;9.230;2023-03-12T16:00:29;11.80;99.90
4509;DHT22;2267;48.816;9.230;2023-03-12T16:03:01;11.80;99.90
4509;DHT22;2267;48.816;9.230;2023-03-12T16:05:34;11.80;99.90
4509;DHT22;2267;48.816;9.230;2023-03-12T16:10:48;11.80;99.90
4509;DHT22;2267;48.816;9.230;2023-03-12T16:13:17;11.80;99.90
4509;DHT22;2267;48.816;9.230;2023-03-12T16:15:46;11.80;99.90
4509;DHT22;2267;48.816;9.230;2023-03-12T16:18:20;11.70;99.90
4509;DHT22;2267;48.816;9.230;2023-03-12T16:20:49;11.70;99.90
4509;DHT22;2267;48.816;9.230;2023-03-12T16:23:17;11.70;99.90
4509;DHT22;2267;48.816;9.230;2023-03-12T16:25:48;11.70;99.90
4509;DHT22;2267;48.816;9.230;2023-03-12T16:28:18;11.70;99.90
4509;DHT22;2267;48.816;9.230;2023-03-12T16:30:45;11.60;99.90
4509;DHT22;2267;48.816;9.230;2023-03-12T16:33:15;11.70;99.90
4509;DHT22;2267;48.816;9.230;2023-03-12T16:35:42;11.70;99.90
4509;DHT22;2267;48.816;9.230;2023-03-12T16:38:09;11.60;99.90
4509;DHT22;2267;48.816;9.230;2023-03-12T16:40:39;11.60;99.90
4509;DHT22;2267;48.816;9.230;2023-03-12T16:43:20;11.60;99.90
4509;DHT22;2267;48.816;9.230;2023-03-12T16:45:48;11.60;99.90
4509;DHT22;2267;48.816;9.230;2023-03-12T16:48:18;11.60;99.90
4509;DHT22;2267;48.816;9.230;2023-03-12T16:50:51;11.60;99.90
4509;DHT22;2267;48.816;9.230;2023-03-12T16:53:18;11.60;99.90
4509;DHT22;2267;48.816;9.230;2023-03-12T16:55:47;11.60;99.90
4509;DHT22;2267;48.816;9.230;2023-03-12T16:58:16;11.60;99.90
4509;DHT22;2267;48.816;9.230;2023-03-12T17:00:44;11.60;99.90
4509;DHT22;2267;48.816;9.230;2023-03-12T17:03:31;11.60;99.90
4509;DHT22;2267;48.816;9.230;2023-03-12T17:06:01;11.60;99.90
4509;DHT22;2267;48.816;9.230;2023-03-12T17:08:28;11.60;99.90
4509;DHT22;2267;48.816;9.230;2023-03-12T17:10:55;11.60;99.90
4509;DHT22;2267;48.816;9.230;2023-03-12T17:13:25;11.60;99.90
4509;DHT22;2267;48.816;9.230;2023-03-12T17:15:53;11.60;99.90
4509;DHT22;2267;48.816;9.230;2023-03-12T17:18:21;11.50;99.90
4509;DHT22;2267;48.816;9.230;2023-03-12T17:20:48;11.50;99.90
4509;DHT22;2267;48.816;9.230;2023-03-12T17:23:17;11.50;99.90
4509;DHT22;2267;48.816;9.230;2023-03-12T17:25:45;11.50;99.90
4509;DHT22;2267;48.816;9.230;2023-03-12T17:28:12;11.50;99.90
4509;DHT22;2267;48.816;9.230;2023-03-12T17:30:41;11.50;99.90
4509;DHT22;2267;48.816;9.230;2023-03-12T17:33:10;11.50;99.90
4509;DHT22;2267;48.816;9.230;2023-03-12T17:35:38;11.50;99.90
4509;DHT22;2267;48.816;9.230;2023-03-12T17:38:05;11.50;99.90
4509;DHT22;2267;48.816;9.230;2023-03-12T17:40:33;11.50;99.90
4509;DHT22;2267;48.816;9.230;2023-03-12T17:43:01;11.50;99.90
4509;DHT22;2267;48.816;9.230;2023-03-12T17:45:27;11.50;99.90
4509;DHT22;2267;48.816;9.230;2023-03-12T17:47:54;11.50;99.90
4509;DHT22;2267;48.816;9.230;2023-03-12T17:50:21;11.40;99.90
4509;DHT22;2267;48.816;9.230;2023-03-12T17:52:48;11.40;99.90
4509;DHT22;2267;48.816;9.230;2023-03-12T17:55:15;11.40;99.90
4509;DHT22;2267;48.816;9.230;2023-03-12T17:57:42;11.40;99.90
4509;DHT22;2267;48.816;9.230;2023-03-12T18:00:10;11.40;99.90
4509;DHT22;2267;48.816;9.230;2023-03-12T18:02:39;11.40;99.90
4509;DHT22;2267;48.816;9.230;2023-03-12T18:05:08;11.40;99.90
4509;DHT22;2267;48.816;9.230;2023-03-12T18:07:36;11.40;99.90
4509;DHT22;2267;48.816;9.230;2023-03-12T18:10:06;11.30;99.90
4509;DHT22;2267;48.816;9.230;2023-03-12T18:12:33;11.30;99.90
4509;DHT22;2267;48.816;9.230;2023-03-12T18:15:00;11.30;99.90
4509;DHT22;2267;48.816;9.230;2023-03-12T18:17:27;11.30;99.90
4509;DHT22;2267;48.816;9.230;2023-03-12T18:19:55;11.30;99.90
4509;DHT22;2267;48.816;9.230;2023-03-12T18:22:21;11.30;99.90
4509;DHT22;2267;48.816;9.230;2023-03-12T18:24:50;11.20;99.90
4509;DHT22;2267;48.816;9.230;2023-03-12T18:27:17;11.20;99.90
4509;DHT22;2267;48.816;9.230;2023-03-12T18:29:43;11.20;99.90
4509;DHT22;2267;48.816;9.230;2023-03-12T18:32:10;11.20;99.90
4509;DHT22;2267;48.816;9.230;2023-03-12T18:34:37;11.20;99.90
4509;DHT22;2267;48.816;9.230;2023-03-12T18:37:07;11.20;99.90
4509;DHT22;2267;48.816;9.230;2023-03-12T18:39:34;11.20;99.90
4509;DHT22;2267;48.816;9.230;2023-03-12T18:42:01;11.20;99.90
4509;DHT22;2267;48.816;9.230;2023-03-12T18:44:29;11.20;99.90
4509;DHT22;2267;48.816;9.230;2023-03-12T18:46:56;11.20;99.90
4509;DHT22;2267;48.816;9.230;2023-03-12T18:49:23;11.20;99.90
4509;DHT22;2267;48.816;9.230;2023-03-12T18:51:50;11.20;99.90
4509;DHT22;2267;48.816;9.230;2023-03-12T18:54:22;11.20;99.90